sensor_id;sensor_type;location;lat;lon;timestamp;temperature;humidity
752;DHT22;360;48.764;9.164;2023-04-25T05:27:56;19.70;39.50
752;DHT22;360;48.764;9.164;2023-04-25T05:30:23;9.10;35.40
752;DHT22;360;48.764;9.164;2023-04-25T05:32:50;9.10;1.00
752;DHT22;360;48.764;9.164;2023-04-25T05:35:17;9.00;99.90
752;DHT22;360;48.764;9.164;2023-04-25T05:37:44;9.20;99.90
752;DHT22;360;48.764;9.164;2023-04-25T05:40:12;9.30;1.00
752;DHT22;360;48.764;9.164;2023-04-25T05:42:39;9.60;1.00
752;DHT22;360;48.764;9.164;2023-04-25T05:45:06;9.60;1.00
752;DHT22;360;48.764;9.164;2023-04-25T05:47:33;9.60;99.90
752;DHT22;360;48.764;9.164;2023-04-25T05:50:00;9.50;1.00
752;DHT22;360;48.764;9.164;2023-04-25T05:52:27;9.60;38.30
752;DHT22;360;48.764;9.164;2023-04-25T05:54:54;9.60;1.00
752;DHT22;360;48.764;9.164;2023-04-25T05:57:24;9.70;1.00
752;DHT22;360;48.764;9.164;2023-04-25T05:59:51;9.60;96.50
752;DHT22;360;48.764;9.164;2023-04-25T06:02:19;9.30;1.00
752;DHT22;360;48.764;9.164;2023-04-25T06:04:46;9.10;1.00
752;DHT22;360;48.764;9.164;2023-04-25T06:07:13;9.20;1.00
752;DHT22;360;48.764;9.164;2023-04-25T06:09:40;9.20;1.00
752;DHT22;360;48.764;9.164;2023-04-25T06:12:07;9.30;1.00
752;DHT22;360;48.764;9.164;2023-04-25T06:14:35;9.20;1.00
752;DHT22;360;48.764;9.164;2023-04-25T06:17:03;9.20;1.00
752;DHT22;360;48.764;9.164;2023-04-25T06:19:32;9.20;1.00
752;DHT22;360;48.764;9.164;2023-04-25T06:21:59;9.30;1.00
752;DHT22;360;48.764;9.164;2023-04-25T06:24:25;9.10;29.10
752;DHT22;360;48.764;9.164;2023-04-25T06:26:52;9.20;1.00
752;DHT22;360;48.764;9.164;2023-04-25T06:29:19;9.20;1.00
752;DHT22;360;48.764;9.164;2023-04-25T06:31:47;9.40;1.00
752;DHT22;360;48.764;9.164;2023-04-25T06:34:15;9.40;1.00
752;DHT22;360;48.764;9.164;2023-04-25T06:36:42;9.30;1.00
752;DHT22;360;48.764;9.164;2023-04-25T06:39:10;9.10;1.00
752;DHT22;360;48.764;9.164;2023-04-25T06:41:36;9.20;99.90
752;DHT22;360;48.764;9.164;2023-04-25T06:44:03;9.00;99.90
752;DHT22;360;48.764;9.164;2023-04-25T06:46:30;9.00;1.00
752;DHT22;360;48.764;9.164;2023-04-25T06:48:58;8.90;1.00
752;DHT22;360;48.764;9.164;2023-04-25T06:51:25;8.90;99.90
752;DHT22;360;48.764;9.164;2023-04-25T06:53:54;9.20;96.00
752;DHT22;360;48.764;9.164;2023-04-25T06:56:21;9.30;1.00
752;DHT22;360;48.764;9.164;2023-04-25T06:58:48;9.20;99.90
752;DHT22;360;48.764;9.164;2023-04-25T07:01:15;9.10;1.00
752;DHT22;360;48.764;9.164;2023-04-25T07:03:42;9.10;1.00
752;DHT22;360;48.764;9.164;2023-04-25T07:06:10;9.10;14.70
752;DHT22;360;48.764;9.164;2023-04-25T07:08:37;9.30;1.00
752;DHT22;360;48.764;9.164;2023-04-25T07:11:04;9.20;1.00
752;DHT22;360;48.764;9.164;2023-04-25T07:13:30;9.40;1.00
752;DHT22;360;48.764;9.164;2023-04-25T07:15:57;9.50;99.70
752;DHT22;360;48.764;9.164;2023-04-25T07:18:24;9.50;1.00
752;DHT22;360;48.764;9.164;2023-04-25T07:20:51;9.40;57.60
752;DHT22;360;48.764;9.164;2023-04-25T07:23:19;9.20;1.00
752;DHT22;360;48.764;9.164;2023-04-25T07:25:46;9.10;99.90
752;DHT22;360;48.764;9.164;2023-04-25T07:28:13;8.90;99.90
752;DHT22;360;48.764;9.164;2023-04-25T07:30:40;9.00;99.90
752;DHT22;360;48.764;9.164;2023-04-25T07:33:07;9.10;99.90
752;DHT22;360;48.764;9.164;2023-04-25T07:35:34;9.10;99.90
752;DHT22;360;48.764;9.164;2023-04-25T07:38:01;8.90;99.90
752;DHT22;360;48.764;9.164;2023-04-25T07:40:29;8.70;99.90
752;DHT22;360;48.764;9.164;2023-04-25T07:42:56;8.50;99.90
752;DHT22;360;48.764;9.164;2023-04-25T07:45:23;8.70;99.90
752;DHT22;360;48.764;9.164;2023-04-25T07:47:50;8.60;99.90
752;DHT22;360;48.764;9.164;2023-04-25T07:50:17;8.70;99.90
752;DHT22;360;48.764;9.164;2023-04-25T07:52:43;8.60;99.90
752;DHT22;360;48.764;9.164;2023-04-25T07:55:10;8.80;99.90
752;DHT22;360;48.764;9.164;2023-04-25T07:57:38;8.90;99.90
752;DHT22;360;48.764;9.164;2023-04-25T08:00:06;8.90;99.90
752;DHT22;360;48.764;9.164;2023-04-25T08:02:35;8.90;99.90
752;DHT22;360;48.764;9.164;2023-04-25T08:05:01;8.90;99.90
752;DHT22;360;48.764;9.164;2023-04-25T08:07:28;8.90;99.90
752;DHT22;360;48.764;9.164;2023-04-25T08:09:55;9.00;99.90
752;DHT22;360;48.764;9.164;2023-04-25T08:12:22;9.00;99.90
752;DHT22;360;48.764;9.164;2023-04-25T08:14:50;8.90;99.90
752;DHT22;360;48.764;9.164;2023-04-25T08:17:17;8.90;99.90
752;DHT22;360;48.764;9.164;2023-04-25T08:19:44;8.90;99.90
752;DHT22;360;48.764;9.164;2023-04-25T08:22:10;8.70;99.90
752;DHT22;360;48.764;9.164;2023-04-25T08:24:38;8.70;99.90
752;DHT22;360;48.764;9.164;2023-04-25T08:27:05;8.70;99.90
752;DHT22;360;48.764;9.164;2023-04-25T08:29:32;8.80;99.90
752;DHT22;360;48.764;9.164;2023-04-25T08:32:00;8.90;99.90
752;DHT22;360;48.764;9.164;2023-04-25T08:34:27;8.70;99.90
752;DHT22;360;48.764;9.164;2023-04-25T08:36:54;8.80;99.90
752;DHT22;360;48.764;9.164;2023-04-25T08:39:20;8.60;99.90
752;DHT22;360;48.764;9.164;2023-04-25T08:41:47;8.60;99.90
752;DHT22;360;48.764;9.164;2023-04-25T08:44:14;8.50;99.90
752;DHT22;360;48.764;9.164;2023-04-25T08:46:45;8.50;99.90
752;DHT22;360;48.764;9.164;2023-04-25T08:49:17;8.70;99.90
752;DHT22;360;48.764;9.164;2023-04-25T08:51:45;8.50;99.90
752;DHT22;360;48.764;9.164;2023-04-25T08:54:14;8.70;99.90
752;DHT22;360;48.764;9.164;2023-04-25T08:56:44;8.60;99.90
752;DHT22;360;48.764;9.164;2023-04-25T08:59:11;8.40;99.90
752;DHT22;360;48.764;9.164;2023-04-25T09:01:39;8.60;99.90
752;DHT22;360;48.764;9.164;2023-04-25T09:04:06;8.60;99.90
752;DHT22;360;48.764;9.164;2023-04-25T09:06:35;8.80;99.90
752;DHT22;360;48.764;9.164;2023-04-25T09:09:03;8.70;99.90
752;DHT22;360;48.764;9.164;2023-04-25T09:11:31;8.80;99.90
752;DHT22;360;48.764;9.164;2023-04-25T09:14:11;8.60;99.90
752;DHT22;360;48.764;9.164;2023-04-25T09:16:57;8.70;99.90
752;DHT22;360;48.764;9.164;2023-04-25T09:19:27;8.60;99.90
752;DHT22;360;48.764;9.164;2023-04-25T09:21:56;8.50;99.90
752;DHT22;360;48.764;9.164;2023-04-25T09:24:31;8.60;99.90
752;DHT22;360;48.764;9.164;2023-04-25T09:26:58;8.60;99.90
752;DHT22;360;48.764;9.164;2023-04-25T09:29:30;8.50;99.90
752;DHT22;360;48.764;9.164;2023-04-25T09:32:16;8.90;99.90
752;DHT22;360;48.764;9.164;2023-04-25T09:34:44;8.80;99.90
752;DHT22;360;48.764;9.164;2023-04-25T09:37:17;8.80;99.90
752;DHT22;360;48.764;9.164;2023-04-25T09:39:46;8.80;99.90
752;DHT22;360;48.764;9.164;2023-04-25T09:42:13;8.70;99.90
752;DHT22;360;48.764;9.164;2023-04-25T09:44:44;8.60;99.90
752;DHT22;360;48.764;9.164;2023-04-25T09:47:12;8.60;99.90
752;DHT22;360;48.764;9.164;2023-04-25T09:49:40;8.70;99.90
752;DHT22;360;48.764;9.164;2023-04-25T09:52:16;8.70;99.90
752;DHT22;360;48.764;9.164;2023-04-25T09:54:43;8.70;99.90
752;DHT22;360;48.764;9.164;2023-04-25T09:57:11;8.50;99.90
752;DHT22;360;48.764;9.164;2023-04-25T09:59:43;8.60;99.90
752;DHT22;360;48.764;9.164;2023-04-25T10:02:10;8.50;99.90
752;DHT22;360;48.764;9.164;2023-04-25T10:04:38;8.40;99.90
752;DHT22;360;48.764;9.164;2023-04-25T14:29:45;9.30;1.00
752;DHT22;360;48.764;9.164;2023-04-25T14:32:13;13.80;1.00
752;DHT22;360;48.764;9.164;2023-04-25T14:34:39;13.70;99.90
752;DHT22;360;48.764;9.164;2023-04-25T14:37:06;13.30;99.90
752;DHT22;360;48.764;9.164;2023-04-25T14:39:34;13.40;99.90
752;DHT22;360;48.764;9.164;2023-04-25T14:42:02;13.30;99.90
752;DHT22;360;48.764;9.164;2023-04-25T14:44:28;13.10;99.90
752;DHT22;360;48.764;9.164;2023-04-25T15:06:34;12.90;99.90
752;DHT22;360;48.764;9.164;2023-04-25T22:32:00;14.70;99.90
752;DHT22;360;48.764;9.164;2023-04-25T22:34:26;9.00;99.90
752;DHT22;360;48.764;9.164;2023-04-25T22:36:53;8.80;1.00
752;DHT22;360;48.764;9.164;2023-04-25T22:39:20;8.70;81.00
752;DHT22;360;48.764;9.164;2023-04-25T22:41:49;8.60;1.00
752;DHT22;360;48.764;9.164;2023-04-25T22:44:16;8.70;1.00
752;DHT22;360;48.764;9.164;2023-04-25T22:46:43;8.80;99.90
752;DHT22;360;48.764;9.164;2023-04-25T22:49:09;8.70;99.90
752;DHT22;360;48.764;9.164;2023-04-25T22:51:36;8.60;1.00
